Terminal Aerodrome Forecast
Issued by NWS Quad Cities IA IL

Home | Current Version | Previous Version | Text Only | Print | Product List | Glossary On
Versions: 1 2 3 4 5 6 7 8 9 10 11 12 13 14 15 16 17 18 19 20 21 22 23 24 25 26 27 28 29 30
865
FTUS43 KDVN 010520
TAFDBQ
TAF
KDBQ 010520Z 0106/0206 05013KT 2SM -DZ BR OVC005
     FM010900 04012KT 1 1/2SM -DZ BR OVC004
     FM011400 04012KT 2SM BR OVC004
     FM011700 05010KT 3SM -SHRA BR OVC007
     FM020100 04008KT 6SM BR VCSH OVC009=

USA.gov is the U.S. government's official web portal to all federal, state and local government web resources and services.